Suances, Spain
Current Conditions -  °F | °C
As of 4:30 PM on Saturday 25 Oct 2014 (Local Time) from LEXJ Reporting Station
Clear Clear  
Wind Chill: 68°   Ceiling: Unl
Heat Index: 68°   Visibility: 6mi
Dew Point: 63°   Wind: 5mph
Humidity: 83%   Direction: 50°NE
Pressure: 30.15"   Gusts: NA
Location:  43.43°N, 4.04°W
Report Text: LEXJ 251430Z 05004KT 020V080 CAVOK 20/17 Q1021
Loading
Personal Weather Stations






























Interactive Weather Map
Tropical Storm Tracking
New forecast layout! Learn more

10-Day Weather Forecast

Advertisements
Track Severe Weather on mobile